createdAt,value
2018-08-25T00:01:39.577Z,79.00
2018-08-25T00:04:11.838Z,79.60
2018-08-25T00:06:43.698Z,80.20
2018-08-25T00:09:15.097Z,80.20
2018-08-25T00:11:46.917Z,79.70
2018-08-25T00:14:18.757Z,79.40
2018-08-25T00:16:50.937Z,79.70
2018-08-25T00:19:22.498Z,80.50
2018-08-25T00:21:54.618Z,81.00
2018-08-25T00:24:25.798Z,81.50
2018-08-25T00:26:57.937Z,80.00
2018-08-25T00:29:29.997Z,80.30
2018-08-25T00:32:01.637Z,80.50
2018-08-25T00:34:33.765Z,80.80
2018-08-25T00:37:06.018Z,80.20
2018-08-25T00:39:38.758Z,80.90
2018-08-25T00:42:10.198Z,80.90
2018-08-25T00:44:42.337Z,79.70
2018-08-25T00:47:13.758Z,79.50
2018-08-25T00:49:45.740Z,79.90
2018-08-25T00:52:16.958Z,78.90
2018-08-25T00:54:49.458Z,79.40
2018-08-25T00:57:20.712Z,79.50
2018-08-25T00:59:53.338Z,78.30
2018-08-25T01:02:26.378Z,78.00
2018-08-25T01:04:58.298Z,78.30
2018-08-25T01:07:30.298Z,78.70
2018-08-25T01:10:02.258Z,77.90
2018-08-25T01:12:34.157Z,77.40
2018-08-25T01:15:05.481Z,77.50
2018-08-25T01:17:37.017Z,77.70
2018-08-25T01:20:09.742Z,77.30
2018-08-25T01:22:41.078Z,76.30
2018-08-25T01:25:12.678Z,76.90
2018-08-25T01:27:44.457Z,76.00
2018-08-25T01:30:16.299Z,75.90
2018-08-25T01:32:48.177Z,75.80
2018-08-25T01:35:20.857Z,76.20
2018-08-25T01:37:51.837Z,75.30
2018-08-25T01:40:24.078Z,75.70
2018-08-25T01:42:55.757Z,75.60
2018-08-25T01:45:27.077Z,76.70
2018-08-25T01:47:58.777Z,74.50
2018-08-25T01:50:31.550Z,75.50
2018-08-25T01:53:03.277Z,75.20
2018-08-25T01:55:36.936Z,74.10
2018-08-25T01:58:09.517Z,75.50
2018-08-25T02:00:41.519Z,74.50
2018-08-25T02:03:13.857Z,73.30
2018-08-25T02:05:46.177Z,72.20
2018-08-25T02:08:17.799Z,72.80
2018-08-25T02:10:49.519Z,71.90
2018-08-25T02:13:20.718Z,71.00
2018-08-25T02:15:52.717Z,72.40
2018-08-25T02:18:24.200Z,72.20
2018-08-25T02:20:56.378Z,71.50
2018-08-25T02:23:28.001Z,71.90
2018-08-25T02:26:00.717Z,72.20
2018-08-25T02:28:33.297Z,71.90
2018-08-25T02:31:04.957Z,72.10
2018-08-25T02:33:37.297Z,71.60
2018-08-25T02:36:08.797Z,71.60
2018-08-25T02:38:40.828Z,70.70
2018-08-25T02:41:12.798Z,71.50
2018-08-25T02:43:44.697Z,71.20
2018-08-25T02:46:16.142Z,71.80
2018-08-25T02:48:47.905Z,71.20
2018-08-25T02:51:19.297Z,70.90
2018-08-25T02:53:51.117Z,70.60
2018-08-25T02:56:22.721Z,71.40
2018-08-25T02:58:55.018Z,70.10
2018-08-25T03:01:27.778Z,70.00
2018-08-25T03:03:58.957Z,69.80
2018-08-25T03:06:31.378Z,68.90
2018-08-25T03:09:02.177Z,68.80
2018-08-25T03:11:35.171Z,69.70
2018-08-25T03:14:08.098Z,70.10
2018-08-25T03:16:39.738Z,69.20
2018-08-25T03:19:12.797Z,68.80
2018-08-25T03:21:45.029Z,68.60
2018-08-25T03:24:17.020Z,67.80
2018-08-25T03:26:49.277Z,67.60
2018-08-25T03:29:21.017Z,67.80
2018-08-25T03:31:52.298Z,67.30
2018-08-25T03:34:24.559Z,67.70
2018-08-25T03:36:56.699Z,68.40
2018-08-25T03:39:28.897Z,69.30
2018-08-25T03:42:00.818Z,70.00
2018-08-25T03:44:32.097Z,70.20
2018-08-25T03:47:04.177Z,70.90
2018-08-25T03:49:36.197Z,71.20
2018-08-25T03:52:07.837Z,71.00
2018-08-25T03:54:39.857Z,72.50
2018-08-25T03:57:11.517Z,71.30
2018-08-25T03:59:44.557Z,71.50
2018-08-25T04:02:16.158Z,71.50
2018-08-25T04:04:48.177Z,71.60
2018-08-25T04:07:20.417Z,71.50
2018-08-25T04:09:52.098Z,71.50
2018-08-25T04:12:24.557Z,71.40
2018-08-25T04:14:56.487Z,71.10
2018-08-25T04:17:28.437Z,71.00
2018-08-25T04:19:59.978Z,71.50
2018-08-25T04:22:31.558Z,71.60
2018-08-25T04:25:03.257Z,70.40
2018-08-25T04:27:34.758Z,70.20
2018-08-25T04:30:06.938Z,70.30
2018-08-25T04:32:39.299Z,70.70
2018-08-25T04:35:11.078Z,70.70
2018-08-25T04:37:42.737Z,70.80
2018-08-25T04:40:14.457Z,71.00
2018-08-25T04:42:46.277Z,70.90
2018-08-25T04:45:17.958Z,71.30
2018-08-25T04:47:50.138Z,71.60
2018-08-25T04:50:21.658Z,71.10
2018-08-25T04:52:53.497Z,70.60
2018-08-25T04:55:25.097Z,70.50
2018-08-25T04:57:57.118Z,70.10
2018-08-25T05:00:28.179Z,69.80
2018-08-25T05:03:01.031Z,70.20
2018-08-25T05:05:33.021Z,71.10
2018-08-25T05:08:04.618Z,70.70
2018-08-25T05:10:36.358Z,70.80
2018-08-25T05:13:08.165Z,70.90
2018-08-25T05:15:40.317Z,70.80
2018-08-25T05:18:12.558Z,70.60
2018-08-25T05:20:44.000Z,70.70
2018-08-25T05:23:16.199Z,70.10
2018-08-25T05:25:48.857Z,70.30
2018-08-25T05:28:20.237Z,70.80
2018-08-25T05:30:52.217Z,70.40
2018-08-25T05:33:23.618Z,70.20
2018-08-25T05:35:55.897Z,70.40
2018-08-25T05:38:27.677Z,70.40
2018-08-25T05:41:00.258Z,70.80
2018-08-25T05:43:31.497Z,71.30
2018-08-25T05:46:03.558Z,71.20
2018-08-25T05:48:35.138Z,71.30
2018-08-25T05:51:06.938Z,70.80
2018-08-25T05:53:38.197Z,71.60
2018-08-25T05:56:10.738Z,71.70
2018-08-25T05:58:42.178Z,71.60
2018-08-25T06:01:13.637Z,72.20
2018-08-25T06:03:45.118Z,71.30
2018-08-25T06:06:18.038Z,71.40
2018-08-25T06:08:49.458Z,72.10
2018-08-25T06:11:21.958Z,72.10
2018-08-25T06:13:53.438Z,72.30
2018-08-25T06:16:25.878Z,72.50
2018-08-25T06:18:57.858Z,72.80
2018-08-25T06:21:30.258Z,73.10
2018-08-25T06:24:02.739Z,73.00
2018-08-25T06:26:35.041Z,72.70
2018-08-25T06:29:06.718Z,72.60
2018-08-25T06:31:39.178Z,73.00
2018-08-25T06:34:10.837Z,73.60
2018-08-25T06:36:42.953Z,73.80
2018-08-25T06:39:14.118Z,73.50
2018-08-25T06:41:46.257Z,73.20
2018-08-25T06:44:17.412Z,73.40
2018-08-25T06:46:49.278Z,73.70
2018-08-25T06:49:20.938Z,73.40
2018-08-25T06:51:52.977Z,73.20
2018-08-25T06:54:24.278Z,72.80
2018-08-25T06:56:56.758Z,72.80
2018-08-25T06:59:28.268Z,71.90
2018-08-25T07:01:59.872Z,71.30
2018-08-25T07:04:31.176Z,70.60
2018-08-25T07:07:03.255Z,67.70
2018-08-25T07:09:34.875Z,67.80
2018-08-25T07:12:06.598Z,65.40
2018-08-25T07:14:38.253Z,62.50
2018-08-25T07:17:10.209Z,62.10
2018-08-25T07:19:41.849Z,61.80
2018-08-25T07:22:13.828Z,61.40
2018-08-25T07:24:45.507Z,60.40
2018-08-25T07:27:17.040Z,61.40
2018-08-25T07:29:49.460Z,60.70
2018-08-25T07:32:21.161Z,60.60
2018-08-25T07:34:52.821Z,61.70
2018-08-25T07:37:25.200Z,62.10
2018-08-25T07:39:57.128Z,61.00
2018-08-25T07:42:28.566Z,59.80
2018-08-25T07:44:59.946Z,60.20
2018-08-25T07:47:32.188Z,58.90
2018-08-25T07:50:03.805Z,58.80
2018-08-25T07:52:35.626Z,59.60
2018-08-25T07:55:07.760Z,60.10
2018-08-25T07:57:39.820Z,61.80
2018-08-25T08:00:11.825Z,61.50
2018-08-25T08:02:43.305Z,59.50
2018-08-25T08:05:14.525Z,57.50
2018-08-25T08:07:47.045Z,58.50
2018-08-25T08:10:19.465Z,58.30
2018-08-25T08:12:51.102Z,59.40
2018-08-25T08:15:23.168Z,60.50
2018-08-25T08:17:55.280Z,60.30
2018-08-25T08:20:27.009Z,62.20
2018-08-25T08:22:58.383Z,62.40
2018-08-25T08:25:29.568Z,61.50
2018-08-25T08:28:01.790Z,62.70
2018-08-25T08:30:35.355Z,64.10
2018-08-25T08:33:07.876Z,65.00
2018-08-25T08:35:41.930Z,65.40
2018-08-25T08:38:14.202Z,65.70
2018-08-25T08:40:46.232Z,66.00
2018-08-25T08:43:19.395Z,66.10
2018-08-25T08:45:51.573Z,65.50
2018-08-25T08:48:23.912Z,65.10
2018-08-25T08:50:56.113Z,64.50
2018-08-25T08:53:27.814Z,63.70
2018-08-25T08:55:59.732Z,62.40
2018-08-25T08:58:31.694Z,61.50
2018-08-25T09:01:04.344Z,62.20
2018-08-25T09:03:36.183Z,63.10
2018-08-25T09:06:08.658Z,62.90
2018-08-25T09:08:40.938Z,63.80
2018-08-25T09:11:12.196Z,63.20
2018-08-25T09:13:44.699Z,64.10
2018-08-25T09:16:16.379Z,64.40
2018-08-25T09:18:48.379Z,64.40
2018-08-25T09:21:20.298Z,64.30
2018-08-25T09:23:52.677Z,64.10
2018-08-25T09:26:24.377Z,65.00
2018-08-25T09:28:56.658Z,65.80
2018-08-25T09:31:28.680Z,66.00
2018-08-25T09:34:01.813Z,66.40
2018-08-25T09:36:34.745Z,67.30
2018-08-25T09:39:08.654Z,67.30
2018-08-25T09:41:41.190Z,66.90
2018-08-25T09:44:14.041Z,67.00
2018-08-25T09:46:46.232Z,67.30
2018-08-25T09:49:18.682Z,67.20
2018-08-25T09:51:51.779Z,67.40
2018-08-25T09:54:23.293Z,68.00
2018-08-25T09:56:55.292Z,68.60
2018-08-25T09:59:27.232Z,68.60
2018-08-25T10:02:02.172Z,68.70
2018-08-25T10:04:33.928Z,68.00
2018-08-25T10:07:05.767Z,66.60
2018-08-25T10:09:37.745Z,66.80
2018-08-25T10:12:09.566Z,66.90
2018-08-25T10:14:41.167Z,70.30
2018-08-25T10:17:13.244Z,72.40
2018-08-25T10:19:44.385Z,72.20
2018-08-25T10:22:16.608Z,71.90
2018-08-25T10:24:48.528Z,72.60
2018-08-25T10:27:20.088Z,74.40
2018-08-25T10:29:51.820Z,72.90
2018-08-25T10:32:23.880Z,72.10
2018-08-25T10:34:55.289Z,72.20
2018-08-25T10:37:27.474Z,73.40
2018-08-25T10:39:59.239Z,72.50
2018-08-25T10:42:31.409Z,70.00
2018-08-25T10:45:03.398Z,71.50
2018-08-25T10:47:35.407Z,72.40
2018-08-25T10:50:08.570Z,74.40
2018-08-25T10:52:40.329Z,70.10
2018-08-25T10:55:12.810Z,70.50
2018-08-25T10:57:46.098Z,70.10
2018-08-25T11:00:18.404Z,70.80
2018-08-25T11:02:50.393Z,68.10
2018-08-25T11:05:22.332Z,67.40
2018-08-25T11:07:54.391Z,70.70
2018-08-25T11:10:26.712Z,68.70
2018-08-25T11:12:58.529Z,71.40
2018-08-25T11:15:30.329Z,70.80
2018-08-25T11:18:02.563Z,74.10
2018-08-25T11:20:34.003Z,74.50
2018-08-25T11:23:06.961Z,75.10
2018-08-25T11:25:38.442Z,75.70
2018-08-25T11:28:09.971Z,75.90
2018-08-25T11:30:41.623Z,74.00
2018-08-25T11:33:13.662Z,75.10
2018-08-25T11:35:45.318Z,75.70
2018-08-25T11:38:19.395Z,75.60
2018-08-25T11:40:51.497Z,75.70
2018-08-25T11:43:24.218Z,76.20
2018-08-25T11:45:56.158Z,73.80
2018-08-25T11:48:27.896Z,72.80
2018-08-25T11:51:01.411Z,74.80
2018-08-25T11:53:33.002Z,74.70
2018-08-25T11:56:06.316Z,73.20
2018-08-25T11:58:39.647Z,68.80
2018-08-25T12:01:10.867Z,71.90
2018-08-25T12:03:43.647Z,72.20
2018-08-25T12:06:15.906Z,72.40
2018-08-25T12:08:48.227Z,72.90
2018-08-25T12:11:20.387Z,72.80
2018-08-25T12:13:52.366Z,70.20
2018-08-25T12:16:24.576Z,70.10
2018-08-25T12:18:56.749Z,70.20
2018-08-25T12:21:28.505Z,70.40
2018-08-25T12:24:00.570Z,70.40
2018-08-25T12:26:32.287Z,71.00
2018-08-25T12:29:04.966Z,71.20
2018-08-25T12:31:37.267Z,70.10
2018-08-25T12:34:08.846Z,69.30
2018-08-25T12:36:40.146Z,71.00
2018-08-25T12:39:13.718Z,72.00
2018-08-25T12:41:46.946Z,69.50
2018-08-25T12:44:19.486Z,73.40
2018-08-25T12:46:50.710Z,74.10
2018-08-25T12:49:22.585Z,73.50
2018-08-25T12:51:54.246Z,73.50
2018-08-25T12:54:26.229Z,74.00
2018-08-25T12:56:58.208Z,74.50
2018-08-25T12:59:30.286Z,74.30
2018-08-25T13:02:02.547Z,73.70
2018-08-25T13:04:34.288Z,72.30
2018-08-25T13:07:05.965Z,70.80
2018-08-25T13:09:36.766Z,70.30
2018-08-25T13:12:09.265Z,71.60
2018-08-25T13:14:41.152Z,69.30
2018-08-25T13:17:12.750Z,71.60
2018-08-25T13:19:44.966Z,71.50
2018-08-25T13:22:16.566Z,71.50
2018-08-25T13:24:49.531Z,71.90
2018-08-25T13:27:21.462Z,72.60
2018-08-25T13:29:53.066Z,73.70
2018-08-25T13:32:25.589Z,74.30
2018-08-25T13:34:57.769Z,73.40
2018-08-25T13:37:30.010Z,74.70
2018-08-25T13:40:01.903Z,75.60
2018-08-25T13:42:34.250Z,75.80
2018-08-25T13:45:06.689Z,75.00
2018-08-25T13:47:39.029Z,75.50
2018-08-25T13:50:11.209Z,76.40
2018-08-25T13:52:44.081Z,76.90
2018-08-25T13:55:15.630Z,77.90
2018-08-25T13:57:47.057Z,78.40
2018-08-25T14:00:19.069Z,77.90
2018-08-25T14:02:51.233Z,77.30
2018-08-25T14:05:23.069Z,76.90
2018-08-25T14:07:55.350Z,77.60
2018-08-25T14:10:26.917Z,78.10
2018-08-25T14:12:59.210Z,77.90
2018-08-25T14:15:30.310Z,76.80
2018-08-25T14:18:02.611Z,76.60
2018-08-25T14:20:35.089Z,76.80
2018-08-25T14:23:06.409Z,77.60
2018-08-25T14:25:38.710Z,77.50
2018-08-25T14:28:10.269Z,77.00
2018-08-25T14:30:42.612Z,78.70
2018-08-25T14:33:14.770Z,77.30
2018-08-25T14:35:47.357Z,78.80
2018-08-25T14:38:20.409Z,78.70
2018-08-25T14:40:52.369Z,79.00
2018-08-25T14:43:24.849Z,79.40
2018-08-25T14:45:57.550Z,80.80
2018-08-25T14:48:28.996Z,79.80
2018-08-25T14:51:00.830Z,80.10
2018-08-25T14:53:32.790Z,79.70
2018-08-25T14:56:05.410Z,79.50
2018-08-25T14:58:38.329Z,79.50
2018-08-25T15:01:09.912Z,80.50
2018-08-25T15:03:42.089Z,81.20
2018-08-25T15:06:14.589Z,79.90
2018-08-25T15:08:46.330Z,80.30
2018-08-25T15:11:18.450Z,79.90
2018-08-25T15:13:50.549Z,80.50
2018-08-25T15:16:22.850Z,80.50
2018-08-25T15:18:55.078Z,79.00
2018-08-25T15:21:27.053Z,79.60
2018-08-25T15:24:00.370Z,80.10
2018-08-25T15:26:31.470Z,80.70
2018-08-25T15:29:03.529Z,81.00
2018-08-25T15:31:35.069Z,80.90
2018-08-25T15:34:07.389Z,79.70
2018-08-25T15:36:39.464Z,79.00
2018-08-25T15:39:14.109Z,79.30
2018-08-25T15:41:45.689Z,79.90
2018-08-25T15:44:18.272Z,78.40
2018-08-25T15:46:50.070Z,78.00
2018-08-25T15:49:21.971Z,79.40
2018-08-25T15:51:53.640Z,79.80
2018-08-25T15:54:25.429Z,79.30
2018-08-25T15:56:56.789Z,78.50
2018-08-25T15:59:29.032Z,79.20
2018-08-25T16:02:01.430Z,78.30
2018-08-25T16:04:33.110Z,78.90
2018-08-25T16:07:05.409Z,79.40
2018-08-25T16:09:35.831Z,78.20
2018-08-25T16:12:07.676Z,79.00
2018-08-25T16:14:39.708Z,80.10
2018-08-25T16:17:12.690Z,80.60
2018-08-25T16:19:45.086Z,81.20
2018-08-25T16:22:16.629Z,80.00
2018-08-25T16:24:49.369Z,80.00
2018-08-25T16:27:21.250Z,80.40
2018-08-25T16:29:52.989Z,81.00
2018-08-25T16:32:24.009Z,74.50
2018-08-25T16:34:56.789Z,75.50
2018-08-25T16:37:28.150Z,78.60
2018-08-25T16:40:00.071Z,79.50
2018-08-25T16:42:31.889Z,80.00
2018-08-25T16:45:04.449Z,80.00
2018-08-25T16:47:36.930Z,80.90
2018-08-25T16:50:08.631Z,81.00
2018-08-25T16:52:40.889Z,80.40
2018-08-25T16:55:13.440Z,80.00
2018-08-25T16:57:45.530Z,80.00
2018-08-25T17:00:17.929Z,80.30
2018-08-25T17:02:49.828Z,78.80
2018-08-25T17:05:21.830Z,79.60
2018-08-25T17:07:53.289Z,79.60
2018-08-25T17:10:25.109Z,80.00
2018-08-25T17:12:58.708Z,79.20
2018-08-25T17:15:31.529Z,77.80
2018-08-25T17:18:05.349Z,78.10
2018-08-25T17:20:37.231Z,78.20
2018-08-25T17:23:09.611Z,77.60
2018-08-25T17:25:41.228Z,77.20
2018-08-25T17:28:13.010Z,77.00
2018-08-25T17:30:45.173Z,76.70
2018-08-25T17:33:17.344Z,77.60
2018-08-25T17:35:49.431Z,76.50
2018-08-25T17:38:21.089Z,76.10
2018-08-25T17:40:53.209Z,76.70
2018-08-25T17:43:25.269Z,76.30
2018-08-25T17:45:57.588Z,75.90
2018-08-25T17:48:30.050Z,75.40
2018-08-25T17:51:02.825Z,75.50
2018-08-25T17:53:35.349Z,75.00
2018-08-25T17:56:08.149Z,75.70
2018-08-25T17:58:39.892Z,74.90
2018-08-25T18:01:12.409Z,74.90
2018-08-25T18:03:43.680Z,74.20
2018-08-25T18:06:15.690Z,74.00
2018-08-25T18:08:48.369Z,74.90
2018-08-25T18:11:19.529Z,74.60
2018-08-25T18:13:51.748Z,74.10
2018-08-25T18:16:23.829Z,73.40
2018-08-25T18:18:55.950Z,74.50
2018-08-25T18:21:28.470Z,74.10
2018-08-25T18:24:00.150Z,73.60
2018-08-25T18:26:32.068Z,75.30
2018-08-25T18:29:04.170Z,74.00
2018-08-25T18:31:36.569Z,74.30
2018-08-25T18:34:09.009Z,74.30
2018-08-25T18:36:41.383Z,73.50
2018-08-25T18:39:15.209Z,73.80
2018-08-25T18:41:47.270Z,74.40
2018-08-25T18:44:19.629Z,74.20
2018-08-25T18:46:51.570Z,74.20
2018-08-25T18:49:23.349Z,74.50
2018-08-25T18:51:55.048Z,74.50
2018-08-25T18:54:27.174Z,74.00
2018-08-25T18:56:58.490Z,73.40
2018-08-25T18:59:30.052Z,73.70
2018-08-25T19:02:02.745Z,74.80
2018-08-25T19:04:35.629Z,75.00
2018-08-25T19:07:06.409Z,74.90
2018-08-25T19:09:38.989Z,74.90
2018-08-25T19:12:10.409Z,74.80
2018-08-25T19:14:42.708Z,74.30
2018-08-25T19:17:15.169Z,73.80
2018-08-25T19:19:47.349Z,73.20
2018-08-25T19:22:18.649Z,73.90
2018-08-25T19:24:49.970Z,74.60
2018-08-25T19:27:22.409Z,74.50
2018-08-25T19:29:53.614Z,74.50
2018-08-25T19:32:26.390Z,73.80
2018-08-25T19:34:58.869Z,74.40
2018-08-25T19:37:31.369Z,73.80
2018-08-25T19:40:03.009Z,73.40
2018-08-25T19:42:35.109Z,73.20
2018-08-25T19:45:07.069Z,73.50
2018-08-25T19:47:38.655Z,72.90
2018-08-25T19:50:10.469Z,73.40
2018-08-25T19:52:42.710Z,74.30
2018-08-25T19:55:15.290Z,73.20
2018-08-25T19:57:47.709Z,73.20
2018-08-25T20:00:19.748Z,73.40
2018-08-25T20:02:52.469Z,74.80
2018-08-25T20:05:24.901Z,74.00
2018-08-25T20:07:56.949Z,75.90
2018-08-25T20:10:29.390Z,77.30
2018-08-25T20:13:00.710Z,77.00
2018-08-25T20:15:33.230Z,75.50
2018-08-25T20:18:04.795Z,76.00
2018-08-25T20:20:36.693Z,79.40
2018-08-25T20:23:08.269Z,78.40
2018-08-25T20:25:39.896Z,77.30
2018-08-25T20:28:11.328Z,77.90
2018-08-25T20:30:43.590Z,77.20
2018-08-25T20:33:15.388Z,78.40
2018-08-25T20:35:48.045Z,78.50
2018-08-25T20:38:20.186Z,79.00
2018-08-25T20:40:51.990Z,78.50
2018-08-25T20:43:24.189Z,77.60
2018-08-25T20:45:55.891Z,77.20
2018-08-25T20:48:28.609Z,77.70
2018-08-25T20:50:59.909Z,77.80
2018-08-25T20:53:31.730Z,76.30
2018-08-25T20:56:04.529Z,75.00
2018-08-25T20:58:36.649Z,74.00
2018-08-25T21:01:08.071Z,74.00
2018-08-25T21:03:39.529Z,73.00
2018-08-25T21:06:11.950Z,74.30
2018-08-25T21:08:43.828Z,74.00
2018-08-25T21:11:15.673Z,74.10
2018-08-25T21:13:48.129Z,75.00
2018-08-25T21:16:19.989Z,75.30
2018-08-25T21:18:51.849Z,75.70
2018-08-25T21:21:23.689Z,75.40
2018-08-25T21:23:54.931Z,76.40
2018-08-25T21:26:26.850Z,76.50
2018-08-25T21:28:59.569Z,76.00
2018-08-25T21:31:32.090Z,75.90
2018-08-25T21:34:03.828Z,77.60
2018-08-25T21:36:35.568Z,76.90
2018-08-25T21:39:08.690Z,78.00
2018-08-25T21:41:41.136Z,77.90
2018-08-25T21:44:13.771Z,78.40
2018-08-25T21:46:45.489Z,77.90
2018-08-25T21:49:18.529Z,75.60
2018-08-25T21:51:50.633Z,74.80
2018-08-25T21:54:22.210Z,74.90
2018-08-25T21:56:53.770Z,74.70
2018-08-25T21:59:25.549Z,76.10
2018-08-25T22:02:00.249Z,76.10
2018-08-25T22:04:32.050Z,76.00
2018-08-25T22:07:03.309Z,75.80
2018-08-25T22:09:34.589Z,75.20
2018-08-25T22:12:06.549Z,75.30
2018-08-25T22:14:38.729Z,75.50
2018-08-25T22:17:10.010Z,75.40
2018-08-25T22:19:41.909Z,76.00
2018-08-25T22:22:14.389Z,74.60
2018-08-25T22:24:46.229Z,75.50
2018-08-25T22:27:18.529Z,75.40
2018-08-25T22:29:50.349Z,74.40
2018-08-25T22:32:22.150Z,74.80
2018-08-25T22:34:52.992Z,74.70
2018-08-25T22:37:25.250Z,75.90
2018-08-25T22:39:56.989Z,75.20
2018-08-25T22:42:28.369Z,74.40
2018-08-25T22:45:00.569Z,75.50
2018-08-25T22:47:32.852Z,76.60
2018-08-25T22:50:04.256Z,76.70
2018-08-25T22:52:40.509Z,76.10
2018-08-25T22:55:12.149Z,76.60
2018-08-25T22:57:43.310Z,76.40
2018-08-25T23:00:15.089Z,76.10
2018-08-25T23:02:46.429Z,76.60
2018-08-25T23:05:18.329Z,77.80
2018-08-25T23:07:50.372Z,78.30
2018-08-25T23:10:22.029Z,78.40
2018-08-25T23:12:54.449Z,77.90
2018-08-25T23:15:26.229Z,78.80
2018-08-25T23:17:56.869Z,78.20
2018-08-25T23:20:28.550Z,78.20
2018-08-25T23:23:00.909Z,78.50
2018-08-25T23:25:32.949Z,79.10
2018-08-25T23:28:05.016Z,77.70
2018-08-25T23:30:36.629Z,78.00
2018-08-25T23:33:08.830Z,77.40
2018-08-25T23:35:41.229Z,77.50
2018-08-25T23:38:13.129Z,78.40
2018-08-25T23:40:45.469Z,77.80
2018-08-25T23:43:17.429Z,77.20
2018-08-25T23:45:49.470Z,77.50
2018-08-25T23:48:20.949Z,77.60
2018-08-25T23:50:51.952Z,77.90
2018-08-25T23:53:24.009Z,77.70
2018-08-25T23:55:55.969Z,77.20
2018-08-25T23:58:27.229Z,78.70
